Haikou Meilan International Airport
ZJHK : now visible

Airfield :











YOU CAN JOIN US ON...

 
LOGIN :

Register | Disclaimer

   EN    FR    IT 

 









Legend :    VFR   Marginal VFR   IFR   Intensive IFR   Very Intensive IFR
Visi :
Ceiling :
>= 8 km
>= 3000ft
5 to 8 km
1000 to 3000 ft
1500m to 5 km
500 to 1000 ft
800 to 1500m
200 to 500 ft
< 800m
< 200 ft
Symbols :   Thunderstorms  Fog  Heavy snow  Heavy precipitations  Wind > 20 kt






- Airport Elevation : 75 ft
- IATA code : HAK


ZJHK - Haikou Meilan International

CURRENT METAR :
  • 271000Z 06006MPS 020V090 1200 R09/P2000 R10/0800N SHRA BKN010 BKN023CB SCT023 27/26 Q1002 BECMG TL1030 5000 -SHRA

EXPIRED METARs :
  • 270900Z 07009MPS 6000 SHRA BKN010 SCT023CB BKN023 26/26 Q1002 BECMG TL0930 -SHRA
  • 270800Z 06009G14MPS 8000 -SHRA SCT006 BKN012 SCT023CB BKN023 26/25 Q1003 RESHRA NOSIG

TAF TAF ZJHK
Valid from the 27 at 06:00 until the 28 at 06:00 UTC


270304Z 2706/2806 07008G15MPS 6000 BKN015 FEW023CB TX29/2706Z TN23/2721Z
TEMPO 2706/2712 09010G20MPS 1000 +TSRA
TEMPO 2713/2719 09010G20MPS 1000 +TSRA
TEMPO 2720/2802 09010G20MPS 1000 +TSRA
ZJSA FIR / Asia



MET'MAP, your aeronautical weather chart ! - Copyright ORBIFLY December 2007 - Disclaimer

ORBIFLY MET'MAP TEAM :

Programming & Development : Alexandra Zaïnal
Original concept : Baudouin d'Aumeries
Technical & hardware support : Manuel Goepfert
Assistance : Marc-Olivier Méhu




SOURCES & CREDITS :

   NOAA       Earth
Advisory